createdAt,value
2017-04-24T00:00:20.932Z,0
2017-04-24T00:01:21.239Z,0
2017-04-24T00:02:20.903Z,0
2017-04-24T00:03:21.201Z,0
2017-04-24T00:04:20.886Z,0
2017-04-24T00:05:21.173Z,0
2017-04-24T00:06:20.870Z,0
2017-04-24T00:07:21.143Z,0
2017-04-24T00:08:21.139Z,0
2017-04-24T00:09:20.802Z,0
2017-04-24T00:10:21.104Z,0
2017-04-24T00:11:21.082Z,0
2017-04-24T00:12:20.758Z,0
2017-04-24T00:13:21.065Z,0
2017-04-24T00:14:21.049Z,0
2017-04-24T00:15:20.714Z,0
2017-04-24T00:16:20.702Z,0
2017-04-24T00:17:20.060Z,0
2017-04-24T00:18:20.989Z,0
2017-04-24T00:19:20.977Z,0
2017-04-24T00:20:20.955Z,0
2017-04-24T00:21:20.631Z,0
2017-04-24T00:22:20.928Z,0
2017-04-24T00:23:20.929Z,0
2017-04-24T00:24:20.593Z,0
2017-04-24T00:25:20.890Z,0
2017-04-24T00:26:20.875Z,0
2017-04-24T00:27:20.540Z,0
2017-04-24T00:28:20.845Z,0
2017-04-24T00:29:20.846Z,0
2017-04-24T00:30:20.495Z,0
2017-04-24T00:31:20.170Z,0
2017-04-24T00:32:20.786Z,0
2017-04-24T00:33:20.778Z,0
2017-04-24T00:34:20.757Z,0
2017-04-24T00:35:20.737Z,0
2017-04-24T00:36:20.724Z,0
2017-04-24T00:37:20.712Z,0
2017-04-24T00:38:20.700Z,0
2017-04-24T00:39:20.390Z,0
2017-04-24T00:40:20.668Z,0
2017-04-24T00:41:20.341Z,0
2017-04-24T00:42:20.645Z,0
2017-04-24T00:43:20.327Z,0
2017-04-24T00:44:20.606Z,0
2017-04-24T00:45:20.598Z,0
2017-04-24T00:46:20.271Z,0
2017-04-24T00:47:20.252Z,0
2017-04-24T00:48:20.246Z,0
2017-04-24T00:49:20.223Z,0
2017-04-24T00:50:20.210Z,0
2017-04-24T00:51:20.509Z,0
2017-04-24T00:52:20.184Z,0
2017-04-24T00:53:20.172Z,0
2017-04-24T00:54:20.476Z,0
2017-04-24T00:55:20.453Z,0
2017-04-24T00:56:20.124Z,0
2017-04-24T00:57:20.420Z,0
2017-04-24T00:58:20.099Z,0
2017-04-24T00:59:20.392Z,0
2017-04-24T01:00:20.068Z,0
2017-04-24T01:01:20.046Z,0
2017-04-24T01:02:20.347Z,0
2017-04-24T01:03:20.338Z,0
2017-04-24T01:04:20.016Z,0
2017-04-24T01:05:20.025Z,0
2017-04-24T01:06:19.976Z,0
2017-04-24T01:07:20.283Z,0
2017-04-24T01:08:20.262Z,0
2017-04-24T01:09:19.933Z,0
2017-04-24T01:10:19.291Z,0
2017-04-24T01:11:19.590Z,0
2017-04-24T01:12:20.215Z,0
2017-04-24T01:13:19.889Z,0
2017-04-24T01:14:19.856Z,0
2017-04-24T01:15:20.187Z,0
2017-04-24T01:16:20.151Z,0
2017-04-24T01:17:20.142Z,0
2017-04-24T01:18:20.127Z,0
2017-04-24T01:19:19.799Z,0
2017-04-24T01:20:19.146Z,0
2017-04-24T01:21:19.525Z,0
2017-04-24T01:22:19.760Z,0
2017-04-24T01:23:20.046Z,0
2017-04-24T01:24:19.724Z,0
2017-04-24T01:25:19.696Z,0
2017-04-24T01:26:19.998Z,0
2017-04-24T01:27:19.898Z,0
2017-04-24T01:28:19.971Z,0
2017-04-24T01:29:19.965Z,0
2017-04-24T01:30:19.647Z,0
2017-04-24T01:31:19.614Z,0
2017-04-24T01:32:19.602Z,0
2017-04-24T01:33:19.583Z,0
2017-04-24T01:34:19.891Z,0
2017-04-24T01:35:19.564Z,0
2017-04-24T01:36:19.851Z,0
2017-04-24T01:37:19.522Z,0
2017-04-24T01:38:19.547Z,0
2017-04-24T01:39:19.816Z,0
2017-04-24T01:40:19.183Z,0
2017-04-24T01:41:19.791Z,0
2017-04-24T01:42:19.766Z,0
2017-04-24T01:43:19.441Z,0
2017-04-24T01:44:19.425Z,0
2017-04-24T01:45:19.409Z,0
2017-04-24T01:46:19.092Z,0
2017-04-24T01:47:19.693Z,0
2017-04-24T01:48:19.681Z,0
2017-04-24T01:49:19.671Z,0
2017-04-24T01:50:19.329Z,0
2017-04-24T01:51:19.319Z,0
2017-04-24T01:52:19.308Z,0
2017-04-24T01:53:19.618Z,0
2017-04-24T01:54:19.587Z,0
2017-04-24T01:55:19.571Z,0
2017-04-24T01:56:19.556Z,0
2017-04-24T01:57:19.543Z,0
2017-04-24T01:58:19.532Z,0
2017-04-24T01:59:19.510Z,0
2017-04-24T02:00:19.496Z,0
2017-04-24T02:01:19.479Z,0
2017-04-24T02:02:19.154Z,0
2017-04-24T02:03:19.457Z,0
2017-04-24T02:04:19.447Z,0
2017-04-24T02:05:19.436Z,0
2017-04-24T02:06:19.090Z,0
2017-04-24T02:07:19.068Z,0
2017-04-24T02:08:19.388Z,0
2017-04-24T02:09:19.045Z,0
2017-04-24T02:10:19.353Z,0
2017-04-24T02:11:18.699Z,0
2017-04-24T02:12:19.312Z,0
2017-04-24T02:13:19.300Z,0
2017-04-24T02:14:19.277Z,0
2017-04-24T02:15:19.263Z,0
2017-04-24T02:16:19.247Z,0
2017-04-24T02:17:18.603Z,0
2017-04-24T02:18:18.937Z,0
2017-04-24T02:19:19.208Z,0
2017-04-24T02:20:18.865Z,0
2017-04-24T02:21:18.855Z,0
2017-04-24T02:22:18.833Z,0
2017-04-24T02:23:19.137Z,0
2017-04-24T02:24:18.796Z,0
2017-04-24T02:25:18.470Z,0
2017-04-24T02:26:18.772Z,0
2017-04-24T02:27:18.750Z,0
2017-04-24T02:28:18.739Z,0
2017-04-24T02:29:18.720Z,0
2017-04-24T02:30:18.704Z,0
2017-04-24T02:31:18.686Z,0
2017-04-24T02:32:18.680Z,0
2017-04-24T02:33:18.656Z,0
2017-04-24T02:34:18.959Z,0
2017-04-24T02:35:18.936Z,0
2017-04-24T02:36:18.608Z,0
2017-04-24T02:37:18.903Z,0
2017-04-24T02:38:18.893Z,0
2017-04-24T02:39:18.869Z,0
2017-04-24T02:40:18.854Z,0
2017-04-24T02:41:18.842Z,0
2017-04-24T02:42:18.510Z,0
2017-04-24T02:43:18.183Z,0
2017-04-24T02:44:18.475Z,0
2017-04-24T02:45:18.455Z,0
2017-04-24T02:46:18.439Z,0
2017-04-24T02:47:18.746Z,0
2017-04-24T02:48:18.729Z,0
2017-04-24T02:49:18.732Z,0
2017-04-24T02:50:18.374Z,0
2017-04-24T02:51:18.671Z,0
2017-04-24T02:52:18.655Z,0
2017-04-24T02:53:18.029Z,0
2017-04-24T02:54:18.310Z,0
2017-04-24T02:55:18.291Z,0
2017-04-24T02:56:18.594Z,0
2017-04-24T02:57:18.266Z,0
2017-04-24T02:58:18.561Z,0
2017-04-24T02:59:18.232Z,0
2017-04-24T03:00:18.531Z,0
2017-04-24T03:01:18.201Z,0
2017-04-24T03:02:18.180Z,0
2017-04-24T03:03:17.844Z,0
2017-04-24T03:04:18.143Z,0
2017-04-24T03:05:18.123Z,0
2017-04-24T03:06:18.441Z,0
2017-04-24T03:07:18.408Z,0
2017-04-24T03:08:18.389Z,0
2017-04-24T03:09:18.374Z,0
2017-04-24T03:10:18.039Z,0
2017-04-24T03:11:18.336Z,0
2017-04-24T03:12:18.318Z,0
2017-04-24T03:13:18.307Z,0
2017-04-24T03:14:18.289Z,0
2017-04-24T03:15:17.656Z,0
2017-04-24T03:16:17.946Z,0
2017-04-24T03:17:17.923Z,0
2017-04-24T03:18:17.903Z,0
2017-04-24T03:19:18.207Z,0
2017-04-24T03:20:18.190Z,0
2017-04-24T03:21:17.854Z,0
2017-04-24T03:22:17.837Z,0
2017-04-24T03:23:17.825Z,0
2017-04-24T03:24:17.797Z,0
2017-04-24T03:25:17.786Z,0
2017-04-24T03:26:18.085Z,0
2017-04-24T03:27:18.067Z,0
2017-04-24T03:28:18.065Z,0
2017-04-24T03:29:18.038Z,0
2017-04-24T03:30:17.386Z,0
2017-04-24T03:31:17.371Z,0
2017-04-24T03:32:17.673Z,0
2017-04-24T03:33:17.965Z,0
2017-04-24T03:34:17.632Z,0
2017-04-24T03:35:17.621Z,0
2017-04-24T03:36:16.978Z,0
2017-04-24T03:37:17.270Z,0
2017-04-24T03:38:17.577Z,0
2017-04-24T03:39:17.235Z,0
2017-04-24T03:40:17.537Z,0
2017-04-24T03:41:17.511Z,0
2017-04-24T03:42:17.504Z,0
2017-04-24T03:43:17.811Z,0
2017-04-24T03:44:17.469Z,0
2017-04-24T03:45:17.131Z,0
2017-04-24T03:46:17.741Z,0
2017-04-24T03:47:17.730Z,0
2017-04-24T03:48:17.398Z,0
2017-04-24T03:49:17.381Z,0
2017-04-24T03:50:17.368Z,0
2017-04-24T03:51:17.024Z,0
2017-04-24T03:52:17.331Z,0
2017-04-24T03:53:17.319Z,0
2017-04-24T03:54:17.613Z,5
2017-04-24T03:55:16.962Z,5
2017-04-24T03:56:17.267Z,5
2017-04-24T03:57:17.241Z,5
2017-04-24T03:58:17.222Z,5
2017-04-24T03:59:17.203Z,5
2017-04-24T04:00:17.502Z,5
2017-04-24T04:01:17.483Z,10
2017-04-24T04:02:16.842Z,10
2017-04-24T04:03:16.824Z,10
2017-04-24T04:04:17.433Z,10
2017-04-24T04:05:17.426Z,10
2017-04-24T04:06:17.399Z,10
2017-04-24T04:07:17.071Z,15
2017-04-24T04:08:17.054Z,15
2017-04-24T04:09:17.348Z,15
2017-04-24T04:10:17.333Z,15
2017-04-24T04:11:17.008Z,20
2017-04-24T04:12:16.996Z,20
2017-04-24T04:13:16.970Z,20
2017-04-24T04:14:16.944Z,20
2017-04-24T04:15:16.941Z,20
2017-04-24T04:16:16.923Z,25
2017-04-24T04:17:16.906Z,25
2017-04-24T04:18:16.883Z,25
2017-04-24T04:19:17.184Z,25
2017-04-24T04:20:17.157Z,25
2017-04-24T04:21:17.139Z,30
2017-04-24T04:22:16.497Z,30
2017-04-24T04:23:16.795Z,30
2017-04-24T04:24:16.782Z,35
2017-04-24T04:25:16.756Z,35
2017-04-24T04:26:17.066Z,35
2017-04-24T04:27:16.726Z,35
2017-04-24T04:28:16.714Z,35
2017-04-24T04:29:17.008Z,40
2017-04-24T04:30:16.358Z,40
2017-04-24T04:31:16.661Z,40
2017-04-24T04:32:16.646Z,40
2017-04-24T04:33:16.623Z,45
2017-04-24T04:34:16.931Z,45
2017-04-24T04:35:16.586Z,45
2017-04-24T04:36:16.882Z,45
2017-04-24T04:37:16.882Z,50
2017-04-24T04:38:16.535Z,50
2017-04-24T04:39:16.834Z,50
2017-04-24T04:40:16.844Z,50
2017-04-24T04:41:16.802Z,55
2017-04-24T04:42:16.780Z,55
2017-04-24T04:43:16.767Z,55
2017-04-24T04:44:16.438Z,55
2017-04-24T04:45:16.733Z,60
2017-04-24T04:46:16.401Z,60
2017-04-24T04:47:16.695Z,60
2017-04-24T04:48:16.364Z,60
2017-04-24T04:49:16.666Z,60
2017-04-24T04:50:16.646Z,65
2017-04-24T04:51:16.628Z,65
2017-04-24T04:52:15.984Z,65
2017-04-24T04:53:16.601Z,65
2017-04-24T04:54:16.583Z,65
2017-04-24T04:55:16.572Z,70
2017-04-24T04:56:16.226Z,70
2017-04-24T04:57:16.529Z,70
2017-04-24T04:58:16.511Z,70
2017-04-24T04:59:16.184Z,70
2017-04-24T05:00:16.474Z,75
2017-04-24T05:01:16.462Z,75
2017-04-24T05:02:16.131Z,75
2017-04-24T05:03:16.436Z,75
2017-04-24T05:04:15.788Z,75
2017-04-24T05:05:16.408Z,80
2017-04-24T05:06:16.374Z,80
2017-04-24T05:07:16.356Z,80
2017-04-24T05:08:16.336Z,80
2017-04-24T05:09:16.017Z,80
2017-04-24T05:10:15.676Z,80
2017-04-24T05:11:16.291Z,85
2017-04-24T05:12:16.273Z,85
2017-04-24T05:13:16.265Z,85
2017-04-24T05:14:16.245Z,85
2017-04-24T05:15:15.912Z,85
2017-04-24T05:16:16.207Z,85
2017-04-24T05:17:16.184Z,85
2017-04-24T05:18:15.859Z,90
2017-04-24T05:19:16.165Z,90
2017-04-24T05:20:16.151Z,90
2017-04-24T05:21:15.175Z,90
2017-04-24T05:22:15.800Z,90
2017-04-24T05:23:15.773Z,90
2017-04-24T05:24:16.075Z,95
2017-04-24T05:25:15.751Z,95
2017-04-24T05:26:15.723Z,95
2017-04-24T05:27:16.021Z,95
2017-04-24T05:28:15.696Z,95
2017-04-24T05:29:15.999Z,95
2017-04-24T05:30:15.972Z,95
2017-04-24T05:31:15.636Z,100
2017-04-24T05:32:15.624Z,100
2017-04-24T05:33:15.928Z,100
2017-04-24T05:34:15.598Z,100
2017-04-24T05:35:15.260Z,100
2017-04-24T05:36:15.875Z,100
2017-04-24T05:37:15.545Z,105
2017-04-24T05:38:15.543Z,105
2017-04-24T05:39:15.830Z,105
2017-04-24T05:40:15.497Z,110
2017-04-24T05:41:15.791Z,110
2017-04-24T05:42:15.462Z,110
2017-04-24T05:43:15.445Z,115
2017-04-24T05:44:15.749Z,115
2017-04-24T05:45:15.414Z,120
2017-04-24T05:46:15.397Z,120
2017-04-24T05:47:15.379Z,120
2017-04-24T05:48:15.682Z,120
2017-04-24T05:49:15.676Z,120
2017-04-24T05:50:15.335Z,120
2017-04-24T05:51:15.636Z,125
2017-04-24T05:52:14.671Z,125
2017-04-24T05:53:15.287Z,120
2017-04-24T05:54:14.960Z,115
2017-04-24T05:55:15.255Z,115
2017-04-24T05:56:15.553Z,110
2017-04-24T05:57:15.227Z,110
2017-04-24T05:58:14.578Z,105
2017-04-24T05:59:14.885Z,110
2017-04-24T06:00:15.180Z,110
2017-04-24T06:01:15.157Z,115
2017-04-24T06:02:15.144Z,115
2017-04-24T06:03:15.130Z,120
2017-04-24T06:04:15.119Z,120
2017-04-24T06:05:15.411Z,125
2017-04-24T06:06:15.084Z,125
2017-04-24T06:07:14.748Z,125
2017-04-24T06:08:15.068Z,125
2017-04-24T06:09:15.036Z,130
2017-04-24T06:10:14.386Z,130
2017-04-24T06:11:15.005Z,125
2017-04-24T06:12:15.323Z,125
2017-04-24T06:13:14.982Z,125
2017-04-24T06:14:15.277Z,120
2017-04-24T06:15:15.257Z,120
2017-04-24T06:16:14.619Z,130
2017-04-24T06:17:14.597Z,130
2017-04-24T06:18:15.218Z,135
2017-04-24T06:19:14.894Z,135
2017-04-24T06:20:15.188Z,135
2017-04-24T06:21:14.850Z,140
2017-04-24T06:22:14.523Z,135
2017-04-24T06:23:14.860Z,135
2017-04-24T06:24:14.810Z,140
2017-04-24T06:25:14.793Z,130
2017-04-24T06:26:14.778Z,135
2017-04-24T06:27:14.766Z,130
2017-04-24T06:28:14.462Z,130
2017-04-24T06:29:14.436Z,125
2017-04-24T06:30:14.406Z,120
2017-04-24T06:31:14.385Z,115
2017-04-24T06:32:14.690Z,120
2017-04-24T06:33:14.682Z,120
2017-04-24T06:34:14.972Z,125
2017-04-24T06:35:14.961Z,130
2017-04-24T06:36:14.947Z,130
2017-04-24T06:37:14.299Z,140
2017-04-24T06:38:14.924Z,145
2017-04-24T06:39:14.904Z,150
2017-04-24T06:40:14.574Z,170
2017-04-24T06:41:14.879Z,190
2017-04-24T06:42:14.229Z,220
2017-04-24T06:43:13.903Z,210
2017-04-24T06:44:14.518Z,220
2017-04-24T06:45:14.497Z,230
2017-04-24T06:46:14.810Z,250
2017-04-24T06:47:14.469Z,260
2017-04-24T06:48:14.780Z,230
2017-04-24T06:49:14.447Z,240
2017-04-24T06:50:14.749Z,255
2017-04-24T06:51:14.415Z,280
2017-04-24T06:52:14.721Z,300
2017-04-24T06:53:14.710Z,300
2017-04-24T06:54:14.387Z,305
2017-04-24T06:55:14.368Z,300
2017-04-24T06:56:14.361Z,305
2017-04-24T06:57:14.665Z,305
2017-04-24T06:58:14.337Z,305
2017-04-24T06:59:14.333Z,305
2017-04-24T07:00:14.631Z,320
2017-04-24T07:01:14.628Z,330
2017-04-24T07:02:14.617Z,330
2017-04-24T07:03:14.607Z,330
2017-04-24T07:04:14.287Z,320
2017-04-24T07:05:14.274Z,320
2017-04-24T07:06:14.273Z,325
2017-04-24T07:07:14.266Z,325
2017-04-24T07:08:14.570Z,335
2017-04-24T07:09:14.576Z,335
2017-04-24T07:10:14.239Z,325
2017-04-24T07:11:14.230Z,310
2017-04-24T07:12:13.913Z,300
2017-04-24T07:13:14.537Z,265
2017-04-24T07:14:14.534Z,215
2017-04-24T07:15:14.204Z,190
2017-04-24T07:16:14.202Z,180
2017-04-24T07:17:14.513Z,175
2017-04-24T07:18:14.503Z,170
2017-04-24T07:19:14.501Z,165
2017-04-24T07:20:14.523Z,165
2017-04-24T07:21:14.489Z,160
2017-04-24T07:22:13.860Z,160
2017-04-24T07:23:14.178Z,160
2017-04-24T07:24:14.482Z,155
2017-04-24T07:25:14.482Z,155
2017-04-24T07:26:14.158Z,155
2017-04-24T07:27:14.466Z,150
2017-04-24T07:28:14.144Z,150
2017-04-24T07:29:14.462Z,150
2017-04-24T07:30:13.824Z,150
2017-04-24T07:31:14.446Z,150
2017-04-24T07:32:14.443Z,150
2017-04-24T07:33:14.442Z,150
2017-04-24T07:34:14.445Z,150
2017-04-24T07:35:14.117Z,150
2017-04-24T07:36:14.146Z,150
2017-04-24T07:37:13.792Z,150
2017-04-24T07:38:14.101Z,150
2017-04-24T07:39:14.094Z,150
2017-04-24T07:40:14.093Z,150
2017-04-24T07:41:13.768Z,150
2017-04-24T07:42:14.080Z,150
2017-04-24T07:43:14.079Z,150
2017-04-24T07:44:14.069Z,150
2017-04-24T07:45:14.063Z,150
2017-04-24T07:46:14.367Z,150
2017-04-24T07:47:14.042Z,150
2017-04-24T07:48:14.365Z,150
2017-04-24T07:49:14.549Z,150
2017-04-24T07:50:14.338Z,150
2017-04-24T07:51:14.027Z,145
2017-04-24T07:52:14.028Z,145
2017-04-24T07:53:14.007Z,145
2017-04-24T07:54:14.316Z,145
2017-04-24T07:55:14.307Z,145
2017-04-24T07:56:13.986Z,150
2017-04-24T07:57:14.282Z,150
2017-04-24T07:58:14.287Z,150
2017-04-24T07:59:14.282Z,150
2017-04-24T08:00:13.639Z,150
2017-04-24T08:01:14.258Z,150
2017-04-24T08:02:14.253Z,150
2017-04-24T08:03:14.241Z,145
2017-04-24T08:04:13.926Z,150
2017-04-24T08:05:13.913Z,155
2017-04-24T08:06:13.913Z,155
2017-04-24T08:07:13.577Z,155
2017-04-24T08:08:14.202Z,155
2017-04-24T08:09:14.197Z,155
2017-04-24T08:10:13.558Z,155
2017-04-24T08:11:14.182Z,160
2017-04-24T08:12:13.534Z,160
2017-04-24T08:13:13.842Z,155
2017-04-24T08:14:13.839Z,155
2017-04-24T08:15:14.143Z,160
2017-04-24T08:16:14.125Z,165
2017-04-24T08:17:14.129Z,160
2017-04-24T08:18:14.128Z,170
2017-04-24T08:19:13.788Z,170
2017-04-24T08:20:13.479Z,165
2017-04-24T08:21:13.459Z,165
2017-04-24T08:22:13.767Z,165
2017-04-24T08:23:14.071Z,170
2017-04-24T08:24:14.062Z,175
2017-04-24T08:25:13.730Z,205
2017-04-24T08:26:14.039Z,215
2017-04-24T08:27:14.038Z,215
2017-04-24T08:28:13.929Z,200
2017-04-24T08:29:14.018Z,190
2017-04-24T08:30:13.691Z,185
2017-04-24T08:31:13.993Z,190
2017-04-24T08:32:13.368Z,230
2017-04-24T08:33:13.976Z,250
2017-04-24T08:34:13.970Z,245
2017-04-24T08:35:13.648Z,250
2017-04-24T08:36:13.321Z,195
2017-04-24T08:37:13.626Z,215
2017-04-24T08:38:13.938Z,245
2017-04-24T08:39:14.015Z,240
2017-04-24T08:40:13.294Z,225
2017-04-24T08:41:13.908Z,210
2017-04-24T08:42:13.590Z,210
2017-04-24T08:43:13.577Z,175
2017-04-24T08:44:13.909Z,190
2017-04-24T08:45:13.876Z,180
2017-04-24T08:46:13.864Z,175
2017-04-24T08:47:13.857Z,180
2017-04-24T08:48:13.558Z,185
2017-04-24T08:49:13.844Z,200
2017-04-24T08:50:13.512Z,200
2017-04-24T08:51:13.507Z,245
2017-04-24T08:52:13.494Z,255
2017-04-24T08:53:13.799Z,245
2017-04-24T08:54:13.482Z,245
2017-04-24T08:55:13.471Z,225
2017-04-24T08:56:13.774Z,205
2017-04-24T08:57:12.826Z,195
2017-04-24T08:58:13.768Z,195
2017-04-24T08:59:13.440Z,195
2017-04-24T09:00:13.436Z,185
2017-04-24T09:01:13.420Z,180
2017-04-24T09:02:13.093Z,170
2017-04-24T09:03:13.721Z,150
2017-04-24T09:04:13.708Z,155
2017-04-24T09:05:13.694Z,155
2017-04-24T09:06:13.376Z,155
2017-04-24T09:07:13.684Z,155
2017-04-24T09:08:13.681Z,160
2017-04-24T09:09:13.351Z,165
2017-04-24T09:10:13.344Z,160
2017-04-24T09:11:13.335Z,155
2017-04-24T09:12:13.007Z,155
2017-04-24T09:13:13.629Z,160
2017-04-24T09:14:13.335Z,170
2017-04-24T09:15:13.614Z,170
2017-04-24T09:16:12.972Z,175
2017-04-24T09:17:12.649Z,180
2017-04-24T09:18:13.611Z,170
2017-04-24T09:19:13.583Z,165
2017-04-24T09:20:13.254Z,165
2017-04-24T09:21:13.562Z,155
2017-04-24T09:22:12.929Z,175
2017-04-24T09:23:13.540Z,185
2017-04-24T09:24:13.220Z,175
2017-04-24T09:25:12.894Z,160
2017-04-24T09:26:13.204Z,150
2017-04-24T09:27:13.510Z,150
2017-04-24T09:28:13.505Z,150
2017-04-24T09:29:13.492Z,150
2017-04-24T09:30:13.165Z,150
2017-04-24T09:31:13.480Z,150
2017-04-24T09:32:13.460Z,150
2017-04-24T09:33:13.470Z,150
2017-04-24T09:34:12.826Z,150
2017-04-24T09:35:13.452Z,150
2017-04-24T09:36:13.434Z,150
2017-04-24T09:37:13.424Z,150
2017-04-24T09:38:13.105Z,150
2017-04-24T09:39:12.780Z,145
2017-04-24T09:40:13.405Z,145
2017-04-24T09:41:13.078Z,145
2017-04-24T09:42:13.067Z,150
2017-04-24T09:43:12.752Z,150
2017-04-24T09:44:13.370Z,145
2017-04-24T09:45:13.044Z,145
2017-04-24T09:46:13.034Z,145
2017-04-24T09:47:13.028Z,145
2017-04-24T09:48:12.708Z,145
2017-04-24T09:49:13.008Z,145
2017-04-24T09:50:12.383Z,145
2017-04-24T09:51:12.996Z,145
2017-04-24T09:52:12.665Z,145
2017-04-24T09:53:12.975Z,150
2017-04-24T09:54:12.658Z,145
2017-04-24T09:55:12.966Z,145
2017-04-24T09:56:13.265Z,145
2017-04-24T09:57:12.952Z,145
2017-04-24T09:58:13.253Z,145
2017-04-24T09:59:12.923Z,145
2017-04-24T10:00:12.918Z,145
2017-04-24T10:01:13.230Z,145
2017-04-24T10:02:12.902Z,145
2017-04-24T10:03:13.213Z,145
2017-04-24T10:04:13.202Z,145
2017-04-24T10:05:12.877Z,140
2017-04-24T10:06:12.872Z,145
2017-04-24T10:07:12.861Z,145
2017-04-24T10:08:12.241Z,145
2017-04-24T10:09:13.163Z,145
2017-04-24T10:10:13.153Z,145
2017-04-24T10:11:12.517Z,145
2017-04-24T10:12:13.133Z,140
2017-04-24T10:13:12.818Z,140
2017-04-24T10:14:12.500Z,140
2017-04-24T10:15:13.111Z,140
2017-04-24T10:16:13.100Z,140
2017-04-24T10:17:13.094Z,140
2017-04-24T10:18:13.087Z,140
2017-04-24T10:19:12.767Z,140
2017-04-24T10:20:12.758Z,135
2017-04-24T10:21:12.748Z,140
2017-04-24T10:22:12.426Z,140
2017-04-24T10:23:13.045Z,140
2017-04-24T10:24:12.726Z,145
2017-04-24T10:25:12.716Z,145
2017-04-24T10:26:12.388Z,145
2017-04-24T10:27:13.018Z,145
2017-04-24T10:28:13.010Z,140
2017-04-24T10:29:12.362Z,145
2017-04-24T10:30:12.675Z,145
2017-04-24T10:31:12.716Z,145
2017-04-24T10:32:12.976Z,145
2017-04-24T10:33:12.650Z,145
2017-04-24T10:34:12.654Z,145
2017-04-24T10:35:12.947Z,145
2017-04-24T10:36:12.622Z,150
2017-04-24T10:37:12.644Z,150
2017-04-24T10:38:12.612Z,155
2017-04-24T10:39:12.604Z,150
2017-04-24T10:40:12.600Z,150
2017-04-24T10:41:12.904Z,145
2017-04-24T10:42:12.577Z,145
2017-04-24T10:43:12.577Z,145
2017-04-24T10:44:12.251Z,140
2017-04-24T10:45:12.877Z,140
2017-04-24T10:46:12.557Z,140
2017-04-24T10:47:12.862Z,140
2017-04-24T10:48:12.536Z,140
2017-04-24T10:49:12.841Z,140
2017-04-24T10:50:12.201Z,140
2017-04-24T10:51:11.884Z,140
2017-04-24T10:52:12.504Z,140
2017-04-24T10:53:12.817Z,140
2017-04-24T10:54:12.805Z,140
2017-04-24T10:55:12.477Z,140
2017-04-24T10:56:12.474Z,140
2017-04-24T10:57:12.152Z,145
2017-04-24T10:58:11.832Z,145
2017-04-24T10:59:12.766Z,145
2017-04-24T11:00:12.129Z,150
2017-04-24T11:01:12.435Z,150
2017-04-24T11:02:12.121Z,150
2017-04-24T11:03:12.425Z,150
2017-04-24T11:04:12.106Z,145
2017-04-24T11:05:12.402Z,150
2017-04-24T11:06:12.712Z,150
2017-04-24T11:07:12.708Z,150
2017-04-24T11:08:12.702Z,150
2017-04-24T11:09:12.378Z,150
2017-04-24T11:10:12.376Z,150
2017-04-24T11:11:12.367Z,150
2017-04-24T11:12:11.728Z,140
2017-04-24T11:13:12.345Z,145
2017-04-24T11:14:12.350Z,145
2017-04-24T11:15:12.646Z,145
2017-04-24T11:16:12.638Z,145
2017-04-24T11:17:12.633Z,145
2017-04-24T11:18:11.676Z,140
2017-04-24T11:19:11.987Z,140
2017-04-24T11:20:11.980Z,140
2017-04-24T11:21:12.284Z,140
2017-04-24T11:22:12.590Z,140
2017-04-24T11:23:11.960Z,140
2017-04-24T11:24:12.580Z,140
2017-04-24T11:25:12.570Z,140
2017-04-24T11:26:12.255Z,140
2017-04-24T11:27:12.560Z,140
2017-04-24T11:28:12.548Z,145
2017-04-24T11:29:12.231Z,140
2017-04-24T11:30:12.531Z,145
2017-04-24T11:31:12.214Z,145
2017-04-24T11:32:12.518Z,145
2017-04-24T11:33:12.201Z,145
2017-04-24T11:34:12.194Z,145
2017-04-24T11:35:12.184Z,145
2017-04-24T11:36:12.173Z,145
2017-04-24T11:37:12.192Z,145
2017-04-24T11:38:12.162Z,140
2017-04-24T11:39:12.472Z,140
2017-04-24T11:40:12.461Z,140
2017-04-24T11:41:11.824Z,140
2017-04-24T11:42:12.439Z,140
2017-04-24T11:43:12.440Z,140
2017-04-24T11:44:12.119Z,140
2017-04-24T11:45:11.791Z,140
2017-04-24T11:46:12.419Z,140
2017-04-24T11:47:12.409Z,140
2017-04-24T11:48:12.400Z,140
2017-04-24T11:49:12.392Z,140
2017-04-24T11:50:12.385Z,140
2017-04-24T11:51:12.379Z,140
2017-04-24T11:52:12.390Z,140
2017-04-24T11:53:12.059Z,140
2017-04-24T11:54:12.356Z,140
2017-04-24T11:55:11.722Z,140
2017-04-24T11:56:12.342Z,140
2017-04-24T11:57:11.710Z,140
2017-04-24T11:58:12.027Z,135
2017-04-24T11:59:12.004Z,140
2017-04-24T12:00:12.005Z,140
2017-04-24T12:01:11.674Z,140
2017-04-24T12:02:12.295Z,140
2017-04-24T12:03:11.663Z,140
2017-04-24T12:04:11.971Z,140
2017-04-24T12:05:12.276Z,140
2017-04-24T12:06:11.957Z,140
2017-04-24T12:07:11.951Z,140
2017-04-24T12:08:11.943Z,140
2017-04-24T12:09:12.262Z,140
2017-04-24T12:10:11.618Z,140
2017-04-24T12:11:11.920Z,145
2017-04-24T12:12:11.597Z,140
2017-04-24T12:13:12.219Z,140
2017-04-24T12:14:12.213Z,140
2017-04-24T12:15:11.887Z,140
2017-04-24T12:16:11.882Z,140
2017-04-24T12:17:11.879Z,140
2017-04-24T12:18:11.868Z,140
2017-04-24T12:19:11.875Z,140
2017-04-24T12:20:11.852Z,140
2017-04-24T12:21:12.166Z,140
2017-04-24T12:22:12.158Z,140
2017-04-24T12:23:12.151Z,135
2017-04-24T12:24:12.147Z,135
2017-04-24T12:25:11.818Z,145
2017-04-24T12:26:11.808Z,135
2017-04-24T12:27:12.121Z,135
2017-04-24T12:28:11.797Z,135
2017-04-24T12:29:11.790Z,135
2017-04-24T12:30:11.468Z,135
2017-04-24T12:31:11.776Z,135
2017-04-24T12:32:12.086Z,135
2017-04-24T12:33:12.076Z,135
2017-04-24T12:34:11.752Z,135
2017-04-24T12:35:11.745Z,140
2017-04-24T12:36:12.058Z,140
2017-04-24T12:37:12.046Z,135
2017-04-24T12:38:12.037Z,135
2017-04-24T12:39:11.409Z,135
2017-04-24T12:40:11.396Z,135
2017-04-24T12:41:11.702Z,135
2017-04-24T12:42:11.383Z,135
2017-04-24T12:43:12.002Z,135
2017-04-24T12:44:12.008Z,135
2017-04-24T12:45:11.989Z,135
2017-04-24T12:46:11.667Z,135
2017-04-24T12:47:11.979Z,135
2017-04-24T12:48:11.969Z,135
2017-04-24T12:49:11.015Z,135
2017-04-24T12:50:11.964Z,135
2017-04-24T12:51:11.637Z,135
2017-04-24T12:52:11.942Z,135
2017-04-24T12:53:11.938Z,135
2017-04-24T12:54:11.614Z,135
2017-04-24T12:55:11.948Z,135
2017-04-24T12:56:11.597Z,135
2017-04-24T12:57:11.902Z,135
2017-04-24T12:58:11.895Z,135
2017-04-24T12:59:10.632Z,135
2017-04-24T13:00:11.889Z,140
2017-04-24T13:01:11.566Z,135
2017-04-24T13:02:11.868Z,130
2017-04-24T13:03:11.556Z,135
2017-04-24T13:04:11.548Z,135
2017-04-24T13:05:11.538Z,135
2017-04-24T13:06:11.532Z,135
2017-04-24T13:07:11.833Z,135
2017-04-24T13:08:11.205Z,135
2017-04-24T13:09:11.204Z,135
2017-04-24T13:10:11.819Z,135
2017-04-24T13:11:11.804Z,135
2017-04-24T13:12:11.799Z,135
2017-04-24T13:13:11.791Z,135
2017-04-24T13:14:11.476Z,135
2017-04-24T13:15:11.778Z,135
2017-04-24T13:16:11.149Z,135
2017-04-24T13:17:11.764Z,135
2017-04-24T13:18:11.469Z,135
2017-04-24T13:19:10.813Z,135
2017-04-24T13:20:11.747Z,135
2017-04-24T13:21:11.740Z,135
2017-04-24T13:22:11.424Z,135
2017-04-24T13:23:11.417Z,135
2017-04-24T13:24:11.091Z,135
2017-04-24T13:25:11.398Z,135
2017-04-24T13:26:11.078Z,135
2017-04-24T13:27:11.699Z,135
2017-04-24T13:28:11.695Z,135
2017-04-24T13:29:10.745Z,135
2017-04-24T13:30:11.051Z,135
2017-04-24T13:31:11.674Z,135
2017-04-24T13:32:11.350Z,135
2017-04-24T13:33:11.655Z,140
2017-04-24T13:34:11.658Z,140
2017-04-24T13:35:11.332Z,140
2017-04-24T13:36:11.662Z,140
2017-04-24T13:37:10.688Z,140
2017-04-24T13:38:11.635Z,140
2017-04-24T13:39:11.303Z,140
2017-04-24T13:40:10.355Z,140
2017-04-24T13:41:11.607Z,140
2017-04-24T13:42:11.623Z,140
2017-04-24T13:43:11.595Z,140
2017-04-24T13:44:11.591Z,140
2017-04-24T13:45:11.574Z,140
2017-04-24T13:46:11.577Z,140
2017-04-24T13:47:11.570Z,140
2017-04-24T13:48:11.561Z,140
2017-04-24T13:49:11.240Z,140
2017-04-24T13:50:10.623Z,140
2017-04-24T13:51:10.612Z,140
2017-04-24T13:52:11.535Z,140
2017-04-24T13:53:11.217Z,140
2017-04-24T13:54:11.522Z,140
2017-04-24T13:55:11.207Z,140
2017-04-24T13:56:11.194Z,140
2017-04-24T13:57:11.190Z,140
2017-04-24T13:58:11.496Z,140
2017-04-24T13:59:10.864Z,140
2017-04-24T14:00:10.227Z,140
2017-04-24T14:01:10.221Z,140
2017-04-24T14:02:10.528Z,140
2017-04-24T14:03:11.467Z,140
2017-04-24T14:04:11.456Z,140
2017-04-24T14:05:11.448Z,140